createdAt,value
2022-09-28T00:00:52.689Z,7.23
2022-09-28T00:03:38.196Z,7.22
2022-09-28T00:06:25.391Z,7.19
2022-09-28T00:09:10.969Z,7.18
2022-09-28T00:11:57.531Z,7.18
2022-09-28T00:14:44.669Z,7.15
2022-09-28T00:17:29.933Z,7.14
2022-09-28T00:20:17.323Z,7.13
2022-09-28T00:23:02.641Z,7.13
2022-09-28T00:25:48.070Z,7.12
2022-09-28T00:28:36.788Z,7.11
2022-09-28T00:31:23.791Z,7.11
2022-09-28T00:34:09.430Z,7.12
2022-09-28T00:36:55.055Z,7.10
2022-09-28T00:39:41.464Z,7.09
2022-09-28T00:42:27.603Z,7.09
2022-09-28T00:45:12.837Z,7.09
2022-09-28T00:48:00.601Z,7.09
2022-09-28T00:50:46.552Z,7.09
2022-09-28T00:53:35.185Z,7.07
2022-09-28T00:56:23.984Z,7.06
2022-09-28T00:59:10.134Z,7.03
2022-09-28T01:01:56.123Z,7.02
2022-09-28T01:04:41.564Z,7.01
2022-09-28T01:07:27.759Z,7.02
2022-09-28T01:10:14.824Z,6.99
2022-09-28T01:13:00.318Z,6.98
2022-09-28T01:16:17.594Z,6.95
2022-09-28T01:19:29.748Z,6.95
2022-09-28T01:22:34.188Z,6.91
2022-09-28T01:25:28.916Z,6.90
2022-09-28T01:28:18.192Z,6.88
2022-09-28T01:31:15.020Z,6.86
2022-09-28T01:34:07.775Z,6.82
2022-09-28T01:36:56.757Z,6.76
2022-09-28T01:39:47.516Z,6.69
2022-09-28T01:42:37.351Z,6.64
2022-09-28T01:45:32.732Z,6.61
2022-09-28T01:48:26.441Z,6.54
2022-09-28T01:51:18.865Z,6.50
2022-09-28T01:54:12.183Z,6.46
2022-09-28T01:57:16.111Z,6.41
2022-09-28T02:00:08.859Z,6.37
2022-09-28T02:03:12.666Z,6.36
2022-09-28T02:06:08.613Z,6.35
2022-09-28T02:08:59.519Z,6.32
2022-09-28T02:12:01.984Z,6.32
2022-09-28T02:14:50.267Z,6.33
2022-09-28T02:17:35.639Z,6.35
2022-09-28T02:20:23.965Z,6.37
2022-09-28T02:23:10.353Z,6.38
2022-09-28T02:26:09.061Z,6.42
2022-09-28T02:28:55.574Z,6.42
2022-09-28T02:31:42.154Z,6.42
2022-09-28T02:34:27.806Z,6.41
2022-09-28T02:37:13.401Z,6.40
2022-09-28T02:39:58.389Z,6.39
2022-09-28T02:43:06.498Z,6.40
2022-09-28T02:46:07.162Z,6.40
2022-09-28T02:49:29.491Z,6.40
2022-09-28T02:52:20.971Z,6.41
2022-09-28T02:55:18.846Z,6.40
2022-09-28T02:58:07.864Z,6.40
2022-09-28T03:01:13.435Z,6.42
2022-09-28T03:04:30.381Z,6.43
2022-09-28T03:07:29.513Z,6.46
2022-09-28T03:10:17.678Z,6.46
2022-09-28T03:13:05.332Z,6.47
2022-09-28T03:15:51.606Z,6.44
2022-09-28T03:18:37.135Z,6.46
2022-09-28T03:21:23.348Z,6.48
2022-09-28T03:24:11.203Z,6.48
2022-09-28T03:26:56.832Z,6.49
2022-09-28T03:29:42.366Z,6.49
2022-09-28T03:32:28.077Z,6.48
2022-09-28T03:35:13.856Z,6.51
2022-09-28T03:37:58.932Z,6.50
2022-09-28T03:40:58.126Z,6.49
2022-09-28T03:43:43.830Z,6.49
2022-09-28T03:46:31.363Z,6.48
2022-09-28T03:49:22.407Z,6.47
2022-09-28T03:52:08.358Z,6.46
2022-09-28T03:54:53.935Z,6.43
2022-09-28T03:57:39.291Z,6.39
2022-09-28T04:00:25.276Z,6.37
2022-09-28T04:03:10.986Z,6.38
2022-09-28T04:05:56.374Z,6.37
2022-09-28T04:08:43.102Z,6.34
2022-09-28T04:11:42.868Z,6.33
2022-09-28T04:14:34.239Z,6.33
2022-09-28T04:17:19.669Z,6.31
2022-09-28T04:20:05.621Z,6.31
2022-09-28T04:23:15.570Z,6.29
2022-09-28T04:26:02.834Z,6.28
2022-09-28T04:29:08.118Z,6.28
2022-09-28T04:31:55.448Z,6.28
2022-09-28T04:34:51.904Z,6.26
2022-09-28T04:37:37.489Z,6.24
2022-09-28T04:40:22.964Z,6.22
2022-09-28T04:43:08.940Z,6.23
2022-09-28T04:46:02.294Z,6.23
2022-09-28T04:48:54.597Z,6.22
2022-09-28T04:52:04.923Z,6.19
2022-09-28T04:54:52.242Z,6.17
2022-09-28T04:57:37.622Z,6.17
2022-09-28T05:00:23.261Z,6.18
2022-09-28T05:03:23.492Z,6.18
2022-09-28T05:06:23.159Z,6.19
2022-09-28T05:09:16.294Z,6.19
2022-09-28T05:12:01.884Z,6.19
2022-09-28T05:14:48.615Z,6.18
2022-09-28T05:17:34.278Z,6.16
2022-09-28T05:20:29.041Z,6.15
2022-09-28T05:23:17.905Z,6.15
2022-09-28T05:26:04.389Z,6.14
2022-09-28T05:28:51.121Z,6.13
2022-09-28T05:32:16.811Z,6.14
2022-09-28T05:35:16.054Z,6.14
2022-09-28T05:38:05.593Z,6.14
2022-09-28T05:40:52.106Z,6.15
2022-09-28T05:43:38.783Z,6.14
2022-09-28T05:46:24.829Z,6.12
2022-09-28T05:49:10.987Z,6.13
2022-09-28T05:51:56.615Z,6.12
2022-09-28T05:54:42.181Z,6.12
2022-09-28T05:57:27.677Z,6.12
2022-09-28T06:00:13.232Z,6.09
2022-09-28T06:03:08.048Z,6.10
2022-09-28T06:05:54.445Z,6.09
2022-09-28T06:08:43.044Z,6.09
2022-09-28T06:12:04.496Z,6.09
2022-09-28T06:14:58.748Z,6.10
2022-09-28T06:17:44.630Z,6.10
2022-09-28T06:20:59.388Z,6.11
2022-09-28T06:23:50.235Z,6.10
2022-09-28T06:26:36.902Z,6.12
2022-09-28T06:29:23.255Z,6.13
2022-09-28T06:32:08.905Z,6.14
2022-09-28T06:34:57.130Z,6.15
2022-09-28T06:37:47.027Z,6.15
2022-09-28T06:40:34.100Z,6.14
2022-09-28T06:43:21.042Z,6.10
2022-09-28T06:46:38.209Z,6.12
2022-09-28T06:49:55.422Z,6.13
2022-09-28T06:53:00.788Z,6.14
2022-09-28T06:56:07.151Z,6.14
2022-09-28T06:58:52.719Z,6.17
2022-09-28T07:01:38.151Z,6.19
2022-09-28T07:04:27.374Z,6.22
2022-09-28T07:07:51.545Z,6.25
2022-09-28T07:10:58.834Z,6.28
2022-09-28T07:14:23.489Z,6.32
2022-09-28T07:17:14.173Z,6.35
2022-09-28T07:20:11.480Z,6.36
2022-09-28T07:23:15.633Z,6.39
2022-09-28T07:26:25.703Z,6.42
2022-09-28T07:29:21.896Z,6.46
2022-09-28T07:32:37.576Z,6.49
2022-09-28T07:35:50.706Z,6.53
2022-09-28T07:38:36.264Z,6.57
2022-09-28T07:41:32.337Z,6.61
2022-09-28T07:44:19.136Z,6.62
2022-09-28T07:47:07.346Z,6.67
2022-09-28T07:50:11.724Z,6.78
2022-09-28T07:53:22.385Z,7.02
2022-09-28T07:56:18.310Z,7.23
2022-09-28T07:59:26.841Z,7.41
2022-09-28T08:02:41.221Z,7.59
2022-09-28T08:05:31.206Z,7.70
2022-09-28T08:08:18.671Z,7.83
2022-09-28T08:11:07.004Z,7.95
2022-09-28T08:14:16.124Z,8.09
2022-09-28T08:17:15.638Z,8.15
2022-09-28T08:20:26.890Z,8.21
2022-09-28T08:23:12.225Z,8.25
2022-09-28T08:25:59.103Z,8.28
2022-09-28T08:28:45.279Z,8.35
2022-09-28T08:32:04.287Z,8.40
2022-09-28T08:34:52.693Z,8.43
2022-09-28T08:38:11.380Z,8.50
2022-09-28T08:41:24.926Z,8.56
2022-09-28T08:44:32.253Z,8.57
2022-09-28T08:47:47.780Z,8.55
2022-09-28T08:51:17.259Z,8.51
2022-09-28T08:54:39.866Z,8.48
2022-09-28T08:57:45.182Z,8.46
2022-09-28T09:00:38.782Z,8.47
2022-09-28T09:03:41.933Z,8.49
2022-09-28T09:07:07.183Z,8.54
2022-09-28T09:10:34.010Z,8.58
2022-09-28T09:13:23.615Z,8.61
2022-09-28T09:16:29.895Z,8.66
2022-09-28T09:19:52.669Z,8.71
2022-09-28T09:23:00.819Z,8.73
2022-09-28T09:25:59.377Z,8.75
2022-09-28T09:34:15.499Z,8.76
2022-09-28T09:37:06.752Z,8.84
2022-09-28T09:40:38.403Z,8.95
2022-09-28T09:43:55.994Z,9.08
2022-09-28T09:47:30.706Z,9.17
2022-09-28T09:50:47.824Z,9.23
2022-09-28T09:53:43.781Z,9.27
2022-09-28T09:56:43.555Z,9.30
2022-09-28T09:59:40.060Z,9.35
2022-09-28T10:02:35.326Z,9.40
2022-09-28T10:05:37.051Z,9.40
2022-09-28T10:08:24.281Z,9.42
2022-09-28T10:11:19.170Z,9.40
2022-09-28T10:14:18.119Z,9.38
2022-09-28T10:17:12.104Z,9.39
2022-09-28T10:20:16.994Z,9.44
2022-09-28T10:23:36.729Z,9.50
2022-09-28T10:26:30.464Z,9.57
2022-09-28T10:29:20.852Z,9.68
2022-09-28T10:32:26.043Z,9.68
2022-09-28T10:35:25.209Z,9.68
2022-09-28T10:38:18.681Z,9.70
2022-09-28T10:41:17.305Z,9.68
2022-09-28T10:44:18.757Z,9.63
2022-09-28T10:47:22.112Z,9.57
2022-09-28T10:50:21.147Z,9.53
2022-09-28T10:53:12.863Z,9.47
2022-09-28T10:56:28.903Z,9.44
2022-09-28T10:59:25.246Z,9.46
2022-09-28T11:02:36.225Z,9.54
2022-09-28T11:05:39.961Z,9.67
2022-09-28T11:08:29.911Z,9.76
2022-09-28T11:11:21.504Z,9.94
2022-09-28T11:14:38.394Z,10.20
2022-09-28T11:17:30.048Z,10.50
2022-09-28T11:20:28.496Z,10.72
2022-09-28T11:23:30.156Z,10.90
2022-09-28T11:26:21.892Z,11.02
2022-09-28T11:29:20.990Z,11.07
2022-09-28T11:32:16.133Z,11.10
2022-09-28T11:35:51.912Z,11.08
2022-09-28T11:39:27.662Z,10.97
2022-09-28T11:42:29.249Z,10.87
2022-09-28T11:45:47.173Z,10.75
2022-09-28T11:48:56.575Z,10.68
2022-09-28T11:51:45.538Z,10.57
2022-09-28T11:54:48.473Z,10.39
2022-09-28T11:57:40.895Z,10.25
2022-09-28T12:00:28.055Z,10.14
2022-09-28T12:03:28.942Z,10.05
2022-09-28T12:06:18.422Z,10.02
2022-09-28T12:09:14.120Z,10.01
2022-09-28T12:12:32.756Z,9.96
2022-09-28T12:16:17.100Z,9.94
2022-09-28T12:19:13.970Z,9.87
2022-09-28T12:22:15.831Z,9.87
2022-09-28T12:25:03.812Z,9.98
2022-09-28T12:28:03.501Z,10.12
2022-09-28T12:30:49.993Z,10.23
2022-09-28T12:33:37.308Z,10.22
2022-09-28T12:36:45.452Z,10.23
2022-09-28T12:40:05.650Z,10.26
2022-09-28T12:43:03.377Z,10.27
2022-09-28T12:46:11.881Z,10.26
2022-09-28T12:52:31.028Z,10.38
2022-09-28T12:55:24.697Z,10.46
2022-09-28T12:58:25.414Z,10.50
2022-09-28T13:01:42.512Z,10.50
2022-09-28T13:04:58.753Z,10.54
2022-09-28T13:08:21.196Z,10.56
2022-09-28T13:11:22.415Z,10.64
2022-09-28T13:14:36.050Z,10.70
2022-09-28T13:17:37.819Z,10.76
2022-09-28T13:21:05.646Z,10.85
2022-09-28T13:24:00.788Z,10.91
2022-09-28T13:26:59.761Z,10.93
2022-09-28T13:29:46.607Z,10.93
2022-09-28T13:32:36.012Z,10.94
2022-09-28T17:48:57.599Z,8.25
2022-09-28T17:51:42.870Z,8.05
2022-09-28T17:54:28.485Z,7.93
2022-09-28T17:57:13.825Z,7.80
2022-09-28T17:59:59.413Z,7.71
2022-09-28T18:02:45.490Z,7.64
2022-09-28T18:05:31.637Z,7.54
2022-09-28T18:08:21.522Z,7.46
2022-09-28T18:11:07.341Z,7.45
2022-09-28T18:13:52.680Z,7.45
2022-09-28T18:16:38.340Z,7.42
2022-09-28T18:19:25.004Z,7.34
2022-09-28T18:22:12.086Z,7.26
2022-09-28T18:24:57.557Z,7.19
2022-09-28T18:27:43.240Z,7.10
2022-09-28T18:30:29.088Z,7.05
2022-09-28T18:33:15.086Z,6.99
2022-09-28T18:36:00.770Z,6.93
2022-09-28T18:38:46.544Z,6.87
2022-09-28T18:41:32.565Z,6.89
2022-09-28T18:44:18.046Z,6.95
2022-09-28T18:47:03.608Z,7.01
2022-09-28T18:49:50.996Z,7.04
2022-09-28T18:52:37.661Z,7.01
2022-09-28T18:55:23.181Z,6.90
2022-09-28T18:58:10.493Z,6.82
2022-09-28T19:01:13.533Z,6.74
2022-09-28T19:04:05.235Z,6.60
2022-09-28T19:06:52.406Z,6.48
2022-09-28T19:09:40.517Z,6.41
2022-09-28T19:12:25.980Z,6.34
2022-09-28T19:15:11.508Z,6.25
2022-09-28T19:17:57.191Z,6.17
2022-09-28T19:20:44.576Z,6.10
2022-09-28T19:23:30.065Z,6.07
2022-09-28T19:26:24.309Z,6.07
2022-09-28T19:29:10.880Z,6.04
2022-09-28T19:31:57.099Z,6.02
2022-09-28T19:34:43.026Z,6.00
2022-09-28T19:37:28.367Z,6.03
2022-09-28T19:40:13.848Z,6.02
2022-09-28T19:42:59.803Z,6.03
2022-09-28T19:45:45.194Z,5.99
2022-09-28T19:48:32.424Z,5.96
2022-09-28T19:51:19.605Z,5.93
2022-09-28T19:54:06.220Z,5.93
2022-09-28T19:56:53.235Z,5.93
2022-09-28T19:59:38.834Z,5.89
2022-09-28T20:02:24.182Z,5.85
2022-09-28T20:05:09.579Z,5.83
2022-09-28T20:07:55.047Z,5.82
2022-09-28T20:10:48.093Z,5.81
2022-09-28T20:13:36.381Z,5.81
2022-09-28T20:16:24.475Z,5.81
2022-09-28T20:19:09.704Z,5.83
2022-09-28T20:21:58.556Z,5.84
2022-09-28T20:24:44.270Z,5.85
2022-09-28T20:27:30.308Z,5.87
2022-09-28T20:30:15.865Z,5.88
2022-09-28T20:33:01.752Z,5.90
2022-09-28T20:35:47.153Z,5.91
2022-09-28T20:38:33.358Z,5.94
2022-09-28T20:41:21.925Z,5.95
2022-09-28T20:44:07.558Z,5.97
2022-09-28T20:46:53.193Z,6.01
2022-09-28T20:49:38.739Z,6.08
2022-09-28T20:52:24.459Z,6.13
2022-09-28T20:55:10.012Z,6.17
2022-09-28T20:57:55.425Z,6.20
2022-09-28T21:00:40.856Z,6.22
2022-09-28T21:03:26.229Z,6.25
2022-09-28T21:06:12.481Z,6.25
2022-09-28T21:08:58.634Z,6.26
2022-09-28T21:11:44.243Z,6.25
2022-09-28T21:14:29.898Z,6.25
2022-09-28T21:17:15.229Z,6.27
2022-09-28T21:20:00.705Z,6.26
2022-09-28T21:22:46.096Z,6.26
2022-09-28T21:25:31.555Z,6.26
2022-09-28T21:28:17.735Z,6.29
2022-09-28T21:31:06.579Z,6.31
2022-09-28T21:33:52.091Z,6.36
2022-09-28T21:36:37.425Z,6.40
2022-09-28T21:39:22.673Z,6.43
2022-09-28T21:42:08.336Z,6.48
2022-09-28T21:44:56.331Z,6.50
2022-09-28T21:47:52.750Z,6.52
2022-09-28T21:50:38.046Z,6.56
2022-09-28T21:53:29.613Z,6.58
2022-09-28T21:56:14.871Z,6.63
2022-09-28T21:59:01.390Z,6.66
2022-09-28T22:01:48.203Z,6.69
2022-09-28T22:04:33.685Z,6.71
2022-09-28T22:07:19.129Z,6.72
2022-09-28T22:10:05.919Z,6.74
2022-09-28T22:12:51.362Z,6.78
2022-09-28T22:15:36.861Z,6.79
2022-09-28T22:18:22.213Z,6.80
2022-09-28T22:21:14.459Z,6.79
2022-09-28T22:24:02.011Z,6.78
2022-09-28T22:26:47.069Z,6.77
2022-09-28T22:29:32.594Z,6.77
2022-09-28T22:32:18.247Z,6.77
2022-09-28T22:35:03.800Z,6.75
2022-09-28T22:37:49.061Z,6.75
2022-09-28T22:40:34.333Z,6.77
2022-09-28T22:43:20.971Z,6.78
2022-09-28T22:46:07.847Z,6.78
2022-09-28T22:48:58.503Z,6.78
2022-09-28T22:51:44.271Z,6.78
2022-09-28T22:54:30.315Z,6.76
2022-09-28T22:57:15.995Z,6.77
2022-09-28T23:00:01.812Z,6.73
2022-09-28T23:02:47.223Z,6.68
2022-09-28T23:05:32.661Z,6.65
2022-09-28T23:08:17.933Z,6.64
2022-09-28T23:11:03.780Z,6.65
2022-09-28T23:13:52.997Z,6.65
2022-09-28T23:16:38.363Z,6.65
2022-09-28T23:19:23.846Z,6.62
2022-09-28T23:22:09.325Z,6.60
2022-09-28T23:24:54.699Z,6.59
2022-09-28T23:27:40.276Z,6.59
2022-09-28T23:30:26.289Z,6.53
2022-09-28T23:33:16.026Z,6.44
2022-09-28T23:36:01.901Z,6.34
2022-09-28T23:38:47.275Z,6.30
2022-09-28T23:41:32.521Z,6.27
2022-09-28T23:44:18.057Z,6.26
2022-09-28T23:47:03.576Z,6.25
2022-09-28T23:49:48.934Z,6.26
2022-09-28T23:52:34.990Z,6.26
2022-09-28T23:55:20.402Z,6.26
2022-09-28T23:58:05.994Z,6.27
